createdAt,value
2022-10-16T00:00:02.952Z,84
2022-10-16T00:03:02.953Z,83.5
2022-10-16T00:06:02.980Z,83.5
2022-10-16T00:09:03.019Z,83.5
2022-10-16T00:12:03.188Z,83.5
2022-10-16T00:15:03.078Z,83.4
2022-10-16T00:18:02.949Z,83.4
2022-10-16T00:21:03.001Z,83.4
2022-10-16T00:24:13.438Z,83.4
2022-10-16T00:27:02.967Z,83.4
2022-10-16T00:30:03.103Z,83.4
2022-10-16T00:33:03.181Z,83.4
2022-10-16T00:36:03.842Z,83.4
2022-10-16T00:42:03.057Z,83.4
2022-10-16T00:45:02.913Z,83.4
2022-10-16T00:48:03.144Z,83.4
2022-10-16T00:51:03.016Z,83.4
2022-10-16T00:54:02.904Z,83.4
2022-10-16T00:57:03.102Z,83.4
2022-10-16T01:00:03.049Z,83.6
2022-10-16T01:03:02.947Z,83.6
2022-10-16T01:06:02.963Z,83.6
2022-10-16T01:09:02.976Z,83.7
2022-10-16T01:12:02.981Z,83.7
2022-10-16T01:15:03.035Z,83.7
2022-10-16T01:18:02.915Z,83.7
2022-10-16T01:21:03.082Z,83.7
2022-10-16T01:24:02.919Z,83.7
2022-10-16T01:27:03.002Z,83.7
2022-10-16T01:30:03.270Z,83.7
2022-10-16T01:33:02.907Z,83.7
2022-10-16T01:36:02.980Z,83.7
2022-10-16T01:39:02.995Z,83.7
2022-10-16T01:42:03.344Z,83.7
2022-10-16T01:45:03.048Z,83.7
2022-10-16T01:48:02.957Z,83.7
2022-10-16T01:51:03.053Z,84.7
2022-10-16T01:54:02.867Z,84.6
2022-10-16T01:57:02.940Z,84.6
2022-10-16T02:00:02.938Z,84.6
2022-10-16T02:03:02.963Z,84.6
2022-10-16T02:06:02.940Z,84.6
2022-10-16T02:09:02.991Z,84.6
2022-10-16T02:12:02.958Z,84.6
2022-10-16T02:15:02.998Z,84.6
2022-10-16T02:18:02.897Z,84.7
2022-10-16T02:21:02.946Z,84.7
2022-10-16T02:24:02.969Z,84.7
2022-10-16T02:27:02.929Z,84.7
2022-10-16T02:30:02.973Z,84.7
2022-10-16T02:33:02.913Z,84.7
2022-10-16T02:36:02.922Z,84.7
2022-10-16T02:39:02.934Z,84.7
2022-10-16T02:42:03.012Z,84.7
2022-10-16T02:45:02.954Z,84.7
2022-10-16T02:48:02.988Z,84.7
2022-10-16T02:51:02.902Z,86.2
2022-10-16T02:54:02.966Z,86
2022-10-16T02:57:02.931Z,86
2022-10-16T03:00:02.952Z,86
2022-10-16T03:03:02.939Z,86
2022-10-16T03:06:02.931Z,86
2022-10-16T03:09:02.886Z,86
2022-10-16T03:12:02.910Z,86
2022-10-16T03:15:02.918Z,86
2022-10-16T03:18:02.926Z,86.3
2022-10-16T03:21:02.947Z,86.3
2022-10-16T03:24:02.945Z,86.3
2022-10-16T03:27:02.917Z,86.3
2022-10-16T03:30:02.918Z,86.3
2022-10-16T03:33:02.935Z,86.3
2022-10-16T03:36:02.950Z,86.3
2022-10-16T03:39:02.904Z,86.3
2022-10-16T03:42:02.902Z,86.3
2022-10-16T03:45:02.885Z,85.6
2022-10-16T03:48:02.938Z,85.6
2022-10-16T03:51:02.897Z,85.6
2022-10-16T03:54:02.927Z,85.6
2022-10-16T03:57:02.986Z,85.6
2022-10-16T04:00:03.052Z,85.6
2022-10-16T04:03:02.910Z,85.6
2022-10-16T04:06:02.911Z,85.6
2022-10-16T04:09:02.964Z,84.8
2022-10-16T04:12:02.960Z,84.8
2022-10-16T04:15:02.913Z,84.8
2022-10-16T04:18:02.913Z,84.8
2022-10-16T04:21:03.275Z,84.8
2022-10-16T04:24:02.963Z,84.8
2022-10-16T04:27:03.154Z,84.8
2022-10-16T04:30:02.967Z,84.8
2022-10-16T04:36:02.951Z,84.8
2022-10-16T04:39:02.919Z,85.4
2022-10-16T04:42:02.937Z,85.4
2022-10-16T04:45:02.903Z,85.2
2022-10-16T04:48:02.967Z,85.2
2022-10-16T04:51:02.935Z,85.2
2022-10-16T04:54:02.941Z,85.2
2022-10-16T04:57:02.890Z,85.2
2022-10-16T05:00:02.965Z,85.2
2022-10-16T05:03:03.340Z,85.8
2022-10-16T05:06:02.949Z,85.8
2022-10-16T05:09:02.989Z,86.2
2022-10-16T05:12:02.956Z,86.2
2022-10-16T05:15:02.936Z,86.2
2022-10-16T05:18:02.937Z,86.2
2022-10-16T05:21:02.935Z,86.2
2022-10-16T05:24:02.915Z,86.2
2022-10-16T05:27:02.927Z,86.2
2022-10-16T05:30:02.922Z,86.2
2022-10-16T05:33:03.127Z,86.3
2022-10-16T05:36:02.942Z,86.3
2022-10-16T05:39:02.901Z,86.3
2022-10-16T05:42:02.862Z,86.3
2022-10-16T05:45:02.881Z,86.7
2022-10-16T05:48:02.961Z,86.7
2022-10-16T05:51:02.893Z,86.7
2022-10-16T05:54:02.892Z,86.7
2022-10-16T05:57:02.866Z,86.7
2022-10-16T06:00:02.958Z,86.7
2022-10-16T06:03:02.945Z,86.7
2022-10-16T06:06:02.853Z,86.5
2022-10-16T06:09:02.916Z,86.5
2022-10-16T06:12:02.955Z,86.5
2022-10-16T06:15:03.047Z,86.5
2022-10-16T06:18:02.952Z,86.5
2022-10-16T06:21:02.931Z,86.5
2022-10-16T06:24:02.929Z,86.5
2022-10-16T06:27:02.987Z,86.5
2022-10-16T06:30:02.960Z,86.5
2022-10-16T06:33:02.882Z,86.5
2022-10-16T06:36:02.958Z,88.4
2022-10-16T06:39:02.917Z,88.4
2022-10-16T06:45:02.909Z,88.8
2022-10-16T06:48:02.934Z,88.8
2022-10-16T06:54:06.700Z,88.8
2022-10-16T06:57:02.916Z,88.8
2022-10-16T07:00:02.944Z,88.8
2022-10-16T07:03:02.925Z,88.8
2022-10-16T07:06:02.910Z,88.8
2022-10-16T07:09:02.907Z,89.3
2022-10-16T07:12:02.912Z,89.3
2022-10-16T07:15:02.948Z,89.3
2022-10-16T07:18:02.921Z,88.8
2022-10-16T07:21:02.941Z,88.8
2022-10-16T07:24:02.918Z,88.8
2022-10-16T07:27:02.899Z,88.8
2022-10-16T07:30:10.494Z,88.8
2022-10-16T07:33:02.855Z,88.5
2022-10-16T07:36:02.936Z,88.5
2022-10-16T07:39:03.089Z,88.5
2022-10-16T07:42:02.910Z,88.5
2022-10-16T07:45:02.906Z,88.5
2022-10-16T07:48:02.977Z,88.5
2022-10-16T07:51:02.904Z,88.5
2022-10-16T07:54:02.931Z,88.1
2022-10-16T07:57:02.935Z,88.1
2022-10-16T08:00:03.051Z,88.1
2022-10-16T08:03:02.901Z,88.1
2022-10-16T08:06:02.924Z,88.1
2022-10-16T08:09:02.914Z,86.9
2022-10-16T08:12:04.853Z,86.9
2022-10-16T08:15:02.931Z,86.9
2022-10-16T08:18:02.930Z,86.9
2022-10-16T08:21:02.903Z,86.2
2022-10-16T08:24:02.942Z,86.2
2022-10-16T08:27:02.904Z,86.2
2022-10-16T08:30:02.980Z,84.8
2022-10-16T08:33:02.910Z,84.8
2022-10-16T08:36:02.907Z,84.8
2022-10-16T08:39:02.941Z,84.7
2022-10-16T08:42:02.921Z,84.7
2022-10-16T08:45:02.992Z,84.7
2022-10-16T08:48:03.268Z,84.7
2022-10-16T08:51:02.873Z,84.7
2022-10-16T08:54:03.149Z,84.7
2022-10-16T08:57:02.968Z,84.7
2022-10-16T09:00:03.069Z,84.7
2022-10-16T09:03:02.924Z,84.7
2022-10-16T09:06:02.931Z,84.7
2022-10-16T09:09:02.906Z,84.7
2022-10-16T09:12:02.906Z,84.7
2022-10-16T09:15:02.945Z,84.7
2022-10-16T09:18:03.183Z,84.7
2022-10-16T09:21:02.926Z,82.2
2022-10-16T09:24:02.906Z,82.2
2022-10-16T09:27:02.938Z,82.3
2022-10-16T09:30:02.951Z,82.3
2022-10-16T09:33:02.964Z,82.3
2022-10-16T09:36:02.869Z,82.3
2022-10-16T09:39:02.981Z,82.3
2022-10-16T09:42:02.868Z,82.3
2022-10-16T09:45:02.889Z,82.3
2022-10-16T09:48:03.816Z,82.3
2022-10-16T09:51:02.895Z,82.3
2022-10-16T09:54:02.970Z,81.3
2022-10-16T09:57:02.894Z,81.3
2022-10-16T10:00:02.997Z,81.3
2022-10-16T10:03:02.948Z,81.3
2022-10-16T10:06:04.623Z,81.2
2022-10-16T10:09:02.942Z,81.2
2022-10-16T10:15:02.945Z,81.2
2022-10-16T10:18:02.959Z,81.6
2022-10-16T10:24:02.923Z,81.6
2022-10-16T10:27:02.960Z,81.6
2022-10-16T10:30:03.081Z,81.6
2022-10-16T10:33:02.912Z,79.7
2022-10-16T10:36:02.995Z,79.7
2022-10-16T10:39:03.038Z,79.7
2022-10-16T10:42:02.966Z,79.7
2022-10-16T10:45:03.084Z,79.7
2022-10-16T10:48:02.934Z,79.7
2022-10-16T10:51:02.961Z,79.7
2022-10-16T10:54:02.978Z,79.7
2022-10-16T10:57:03.053Z,79.7
2022-10-16T11:00:02.964Z,75.8
2022-10-16T11:03:02.934Z,75.8
2022-10-16T11:06:02.976Z,75.8
2022-10-16T11:09:03.949Z,75.8
2022-10-16T11:12:02.928Z,75.8
2022-10-16T11:15:02.934Z,75.8
2022-10-16T11:18:02.891Z,74.3
2022-10-16T11:21:02.936Z,74.3
2022-10-16T11:24:02.946Z,73.1
2022-10-16T11:27:02.944Z,73.1
2022-10-16T11:30:02.989Z,73.1
2022-10-16T11:33:02.917Z,73.1
2022-10-16T11:36:02.984Z,73.1
2022-10-16T11:39:02.877Z,73.1
2022-10-16T11:42:02.976Z,73.1
2022-10-16T11:45:02.899Z,73.1
2022-10-16T11:48:03.655Z,73.1
2022-10-16T11:51:02.913Z,73.1
2022-10-16T11:54:03.103Z,73.1
2022-10-16T11:57:02.934Z,73.1
2022-10-16T12:00:03.017Z,73.1
2022-10-16T12:03:02.961Z,73.1
2022-10-16T12:06:02.963Z,73.1
2022-10-16T12:09:02.973Z,73.1
2022-10-16T12:12:02.953Z,73.1
2022-10-16T12:15:54.509Z,71
2022-10-16T12:18:02.975Z,70.6
2022-10-16T12:21:02.968Z,70.6
2022-10-16T12:24:02.946Z,70.6
2022-10-16T12:27:02.945Z,70.6
2022-10-16T12:30:03.077Z,70.6
2022-10-16T12:33:02.996Z,70.6
2022-10-16T12:36:02.991Z,70.6
2022-10-16T12:39:02.939Z,70.6
2022-10-16T12:42:03.036Z,70.6
2022-10-16T12:45:02.930Z,70.6
2022-10-16T12:48:02.968Z,70.6
2022-10-16T12:51:02.971Z,70.6
2022-10-16T12:54:02.964Z,70.6
2022-10-16T12:57:02.965Z,70.6
2022-10-16T13:00:03.034Z,70.6
2022-10-16T13:03:02.954Z,70.6
2022-10-16T13:06:02.949Z,70.6
2022-10-16T13:09:02.963Z,70.6
2022-10-16T13:12:02.936Z,70.6
2022-10-16T13:15:02.953Z,71.6
2022-10-16T13:18:02.913Z,71.6
2022-10-16T13:21:02.958Z,71.6
2022-10-16T13:24:02.930Z,71.6
2022-10-16T13:27:02.947Z,71.6
2022-10-16T13:30:03.024Z,71.6
2022-10-16T13:33:02.986Z,71.6
2022-10-16T13:36:02.898Z,70.5
2022-10-16T13:39:02.942Z,70.5
2022-10-16T13:42:11.107Z,70.5
2022-10-16T13:45:02.942Z,70.5
2022-10-16T13:48:02.953Z,70.5
2022-10-16T13:51:02.998Z,70.5
2022-10-16T13:54:02.972Z,70.5
2022-10-16T13:57:29.347Z,70.5
2022-10-16T14:00:03.141Z,70.5
2022-10-16T14:03:02.949Z,70.5
2022-10-16T14:06:03.000Z,70.5
2022-10-16T14:09:02.977Z,70.5
2022-10-16T14:12:02.976Z,70.5
2022-10-16T14:15:03.000Z,69.6
2022-10-16T14:18:02.966Z,69.6
2022-10-16T14:21:04.224Z,69.6
2022-10-16T14:24:03.223Z,68
2022-10-16T14:27:03.019Z,68
2022-10-16T14:30:03.042Z,68
2022-10-16T14:33:02.995Z,68
2022-10-16T14:36:02.978Z,68
2022-10-16T14:39:02.994Z,68
2022-10-16T14:42:02.952Z,68
2022-10-16T14:45:03.031Z,68
2022-10-16T14:48:02.941Z,68
2022-10-16T14:51:02.997Z,68
2022-10-16T14:54:03.088Z,68
2022-10-16T14:57:02.999Z,68
2022-10-16T15:00:03.055Z,68
2022-10-16T15:03:02.962Z,68.3
2022-10-16T15:06:02.960Z,68.6
2022-10-16T15:09:02.957Z,68.6
2022-10-16T15:12:03.029Z,68.6
2022-10-16T15:15:02.952Z,68.6
2022-10-16T15:18:02.984Z,68.6
2022-10-16T15:21:02.921Z,68.8
2022-10-16T15:24:02.937Z,68.8
2022-10-16T15:27:02.945Z,68.8
2022-10-16T15:30:03.079Z,68.8
2022-10-16T15:33:02.902Z,68.8
2022-10-16T15:36:03.004Z,68.8
2022-10-16T15:39:02.906Z,68.8
2022-10-16T15:42:03.084Z,68.8
2022-10-16T15:45:03.040Z,68.8
2022-10-16T15:48:03.027Z,68.8
2022-10-16T15:51:03.190Z,68.8
2022-10-16T15:54:03.097Z,68.8
2022-10-16T15:57:02.939Z,68.8
2022-10-16T16:00:09.521Z,68.8
2022-10-16T16:03:03.558Z,70.3
2022-10-16T16:06:02.952Z,70.3
2022-10-16T16:12:02.927Z,71.3
2022-10-16T16:15:08.102Z,71.3
2022-10-16T16:18:03.060Z,71.3
2022-10-16T16:21:02.882Z,71.3
2022-10-16T16:24:02.994Z,71.3
2022-10-16T16:30:02.943Z,71.3
2022-10-16T16:33:02.923Z,71.3
2022-10-16T16:36:03.159Z,71.6
2022-10-16T16:39:02.930Z,71.6
2022-10-16T16:42:02.932Z,71.6
2022-10-16T16:45:03.030Z,71.6
2022-10-16T16:48:03.000Z,71.6
2022-10-16T16:51:03.056Z,71.6
2022-10-16T16:54:02.937Z,71.6
2022-10-16T16:57:02.944Z,71.6
2022-10-16T17:00:03.200Z,71.6
2022-10-16T17:03:02.947Z,71.6
2022-10-16T17:06:03.020Z,71.6
2022-10-16T17:09:02.979Z,71.8
2022-10-16T17:12:02.962Z,71.8
2022-10-16T17:15:03.007Z,71.8
2022-10-16T17:18:03.160Z,71.8
2022-10-16T17:21:03.003Z,72
2022-10-16T17:24:02.960Z,72.1
2022-10-16T17:27:02.929Z,72.1
2022-10-16T17:30:03.026Z,72.1
2022-10-16T17:33:02.877Z,72.1
2022-10-16T17:36:02.918Z,72.8
2022-10-16T17:39:02.911Z,72.8
2022-10-16T17:42:02.925Z,72.8
2022-10-16T17:45:02.907Z,72.8
2022-10-16T17:48:02.946Z,73.8
2022-10-16T17:51:02.893Z,73.8
2022-10-16T17:54:02.912Z,74.2
2022-10-16T17:57:02.879Z,74.2
2022-10-16T18:00:03.019Z,74.2
2022-10-16T18:03:02.923Z,74.3
2022-10-16T18:06:02.966Z,74.3
2022-10-16T18:09:02.865Z,74.3
2022-10-16T18:12:02.898Z,74.3
2022-10-16T18:15:02.944Z,74.3
2022-10-16T18:18:02.895Z,74.3
2022-10-16T18:21:02.916Z,74.3
2022-10-16T18:24:02.887Z,74.3
2022-10-16T18:27:02.911Z,75.7
2022-10-16T18:30:02.958Z,75.7
2022-10-16T18:33:02.919Z,75.7
2022-10-16T18:36:02.915Z,75.7
2022-10-16T18:39:03.005Z,75.7
2022-10-16T18:42:02.953Z,76.8
2022-10-16T18:45:02.938Z,76.8
2022-10-16T18:48:02.948Z,76.8
2022-10-16T18:51:02.858Z,76.8
2022-10-16T18:54:02.915Z,76.8
2022-10-16T18:57:02.912Z,76.8
2022-10-16T19:00:02.951Z,76.8
2022-10-16T19:03:02.914Z,76.8
2022-10-16T19:06:02.938Z,76.8
2022-10-16T19:09:02.890Z,76.8
2022-10-16T19:12:02.924Z,76.8
2022-10-16T19:15:02.888Z,76.8
2022-10-16T19:18:02.925Z,76.8
2022-10-16T19:21:03.027Z,78.8
2022-10-16T19:24:02.915Z,78.8
2022-10-16T19:27:02.886Z,78.8
2022-10-16T19:30:03.094Z,78.8
2022-10-16T19:33:02.960Z,78.8
2022-10-16T19:36:02.879Z,78.8
2022-10-16T19:39:02.958Z,79.3
2022-10-16T19:42:02.904Z,79.4
2022-10-16T19:45:02.927Z,79.4
2022-10-16T19:48:02.875Z,79.4
2022-10-16T19:51:02.894Z,79.4
2022-10-16T19:54:02.911Z,79.4
2022-10-16T19:57:02.955Z,79.4
2022-10-16T20:00:02.981Z,79.4
2022-10-16T20:03:02.939Z,79.4
2022-10-16T20:06:02.895Z,79.4
2022-10-16T20:09:02.933Z,79.4
2022-10-16T20:12:02.933Z,79.4
2022-10-16T20:15:02.872Z,79.4
2022-10-16T20:18:02.928Z,79.4
2022-10-16T20:21:02.881Z,79.4
2022-10-16T20:24:02.928Z,79.4
2022-10-16T20:27:02.892Z,80.5
2022-10-16T20:30:02.928Z,80.5
2022-10-16T20:33:02.922Z,80.5
2022-10-16T20:36:02.924Z,80.6
2022-10-16T20:39:02.923Z,80.6
2022-10-16T20:42:02.920Z,80.6
2022-10-16T20:45:03.162Z,80.6
2022-10-16T20:48:02.901Z,80.6
2022-10-16T20:51:02.961Z,80.6
2022-10-16T20:54:02.907Z,80.6
2022-10-16T20:57:02.893Z,80.6
2022-10-16T21:00:02.914Z,80.6
2022-10-16T21:03:02.897Z,80.6
2022-10-16T21:06:02.974Z,80.6
2022-10-16T21:09:02.873Z,80.6
2022-10-16T21:12:02.895Z,80.6
2022-10-16T21:15:17.763Z,80.6
2022-10-16T21:18:02.940Z,80.6
2022-10-16T21:21:02.876Z,81.3
2022-10-16T21:24:02.903Z,81.3
2022-10-16T21:27:02.894Z,81.3
2022-10-16T21:30:02.958Z,81.3
2022-10-16T21:33:02.925Z,81.3
2022-10-16T21:36:02.897Z,81.8
2022-10-16T21:39:02.897Z,81.8
2022-10-16T21:42:02.897Z,81.8
2022-10-16T21:45:02.902Z,81.8
2022-10-16T21:48:02.957Z,81.8
2022-10-16T21:51:02.906Z,81.8
2022-10-16T21:54:02.902Z,81.8
2022-10-16T22:00:08.993Z,81.8
2022-10-16T22:03:03.060Z,81.8
2022-10-16T22:06:09.047Z,81.8
2022-10-16T22:09:03.045Z,81.8
2022-10-16T22:12:02.942Z,81.8
2022-10-16T22:15:03.097Z,81.8
2022-10-16T22:18:02.900Z,81.8
2022-10-16T22:21:02.891Z,81.8
2022-10-16T22:24:02.895Z,81.8
2022-10-16T22:27:02.898Z,81.8
2022-10-16T22:30:02.921Z,83.8
2022-10-16T22:33:02.876Z,83.8
2022-10-16T22:36:03.009Z,83.8
2022-10-16T22:39:02.891Z,83.8
2022-10-16T22:42:02.944Z,83.8
2022-10-16T22:45:02.907Z,83.8
2022-10-16T22:48:02.908Z,83.8
2022-10-16T22:51:02.908Z,83.8
2022-10-16T22:54:02.891Z,83.8
2022-10-16T22:57:02.910Z,83.8
2022-10-16T23:00:02.938Z,83.8
2022-10-16T23:03:03.024Z,83.8
2022-10-16T23:06:02.916Z,83.8
2022-10-16T23:09:02.902Z,83.8
2022-10-16T23:12:02.887Z,83.8
2022-10-16T23:15:02.989Z,83.8
2022-10-16T23:18:02.926Z,83.8
2022-10-16T23:21:02.919Z,83.8
2022-10-16T23:24:02.880Z,84.1
2022-10-16T23:27:02.915Z,84.1
2022-10-16T23:30:02.904Z,84.1
2022-10-16T23:33:02.910Z,84.1
2022-10-16T23:36:02.899Z,84.1
2022-10-16T23:39:02.946Z,84.1
2022-10-16T23:42:02.946Z,84.1
2022-10-16T23:45:02.870Z,84.1
2022-10-16T23:48:02.929Z,84.1
2022-10-16T23:51:02.900Z,84.1
2022-10-16T23:54:02.898Z,84.1
2022-10-16T23:57:02.880Z,84.1
